createdAt,value
2017-07-21T00:01:01.565Z,8.43
2017-07-21T00:03:28.005Z,9.20
2017-07-21T00:05:54.473Z,8.70
2017-07-21T00:08:20.876Z,8.67
2017-07-21T00:10:47.285Z,9.30
2017-07-21T00:13:14.469Z,8.43
2017-07-21T00:15:40.879Z,7.53
2017-07-21T00:18:07.281Z,8.63
2017-07-21T00:20:33.737Z,9.30
2017-07-21T00:23:00.161Z,7.80
2017-07-21T00:25:27.275Z,9.10
2017-07-21T00:27:53.703Z,9.23
2017-07-21T00:30:20.107Z,8.40
2017-07-21T00:32:46.510Z,8.67
2017-07-21T00:35:13.656Z,8.57
2017-07-21T00:37:40.800Z,7.77
2017-07-21T00:40:07.234Z,8.00
2017-07-21T00:42:34.386Z,8.73
2017-07-21T00:45:00.800Z,7.60
2017-07-21T00:47:27.223Z,8.50
2017-07-21T00:49:53.629Z,8.27
2017-07-21T00:52:20.070Z,9.10
2017-07-21T00:54:46.452Z,8.20
2017-07-21T00:57:12.913Z,9.07
2017-07-21T00:59:39.326Z,7.53
2017-07-21T01:02:06.453Z,7.60
2017-07-21T01:04:32.863Z,9.03
2017-07-21T01:06:59.263Z,9.13
2017-07-21T01:09:26.513Z,8.40
2017-07-21T01:11:52.907Z,8.40
2017-07-21T01:14:19.302Z,8.97
2017-07-21T01:16:45.674Z,7.57
2017-07-21T01:19:13.839Z,9.83
2017-07-21T01:21:40.315Z,9.07
2017-07-21T01:24:06.735Z,7.30
2017-07-21T01:26:33.871Z,8.13
2017-07-21T01:29:01.009Z,7.30
2017-07-21T01:31:27.456Z,7.90
2017-07-21T01:33:55.539Z,9.80
2017-07-21T01:36:22.760Z,8.17
2017-07-21T01:38:49.169Z,7.93
2017-07-21T01:41:15.609Z,6.23
2017-07-21T01:43:42.010Z,7.80
2017-07-21T01:46:08.441Z,7.00
2017-07-21T01:48:35.769Z,6.90
2017-07-21T01:51:02.941Z,6.13
2017-07-21T01:53:29.381Z,6.37
2017-07-21T01:55:55.838Z,6.40
2017-07-21T01:58:22.282Z,6.00
2017-07-21T02:00:48.708Z,7.73
2017-07-21T02:03:15.111Z,6.13
2017-07-21T02:05:41.911Z,7.10
2017-07-21T02:08:08.312Z,6.40
2017-07-21T02:10:34.718Z,6.87
2017-07-21T02:13:01.124Z,7.20
2017-07-21T02:15:28.267Z,6.83
2017-07-21T02:17:55.409Z,6.47
2017-07-21T02:20:21.788Z,5.57
2017-07-21T02:22:48.207Z,5.10
2017-07-21T02:25:14.646Z,6.30
2017-07-21T02:27:41.048Z,5.30
2017-07-21T02:30:08.197Z,6.10
2017-07-21T02:32:35.404Z,5.53
2017-07-21T02:35:01.842Z,6.40
2017-07-21T02:37:28.241Z,5.67
2017-07-21T02:39:54.721Z,7.17
2017-07-21T02:42:21.147Z,5.20
2017-07-21T02:44:47.560Z,5.83
2017-07-21T02:47:13.954Z,5.00
2017-07-21T02:49:41.383Z,6.70
2017-07-21T02:52:07.812Z,6.07
2017-07-21T02:54:34.225Z,6.20
2017-07-21T02:57:00.608Z,7.47
2017-07-21T02:59:27.764Z,6.23
2017-07-21T03:01:54.915Z,6.60
2017-07-21T03:04:22.049Z,6.63
2017-07-21T03:06:49.175Z,6.33
2017-07-21T03:09:15.573Z,6.20
2017-07-21T03:11:41.993Z,6.67
2017-07-21T03:14:08.388Z,5.77
2017-07-21T03:16:34.840Z,6.30
2017-07-21T03:19:01.985Z,6.20
2017-07-21T03:21:29.120Z,6.10
2017-07-21T03:23:55.540Z,5.93
2017-07-21T03:26:21.953Z,7.03
2017-07-21T03:28:48.353Z,5.90
2017-07-21T03:31:14.747Z,6.50
2017-07-21T03:33:41.146Z,6.60
2017-07-21T03:36:07.565Z,6.43
2017-07-21T03:38:34.729Z,6.47
2017-07-21T03:41:01.109Z,6.07
2017-07-21T03:43:28.248Z,6.30
2017-07-21T03:45:54.668Z,6.43
2017-07-21T03:48:21.087Z,6.40
2017-07-21T03:50:47.564Z,6.07
2017-07-21T03:53:13.960Z,6.77
2017-07-21T03:55:40.360Z,6.63
2017-07-21T03:58:06.780Z,7.83
2017-07-21T04:00:33.179Z,6.40
2017-07-21T04:02:59.557Z,7.30
2017-07-21T04:05:25.976Z,6.20
2017-07-21T04:07:52.369Z,6.73
2017-07-21T04:10:18.779Z,6.53
2017-07-21T04:12:45.205Z,8.83
2017-07-21T04:15:12.076Z,7.67
2017-07-21T04:17:39.222Z,7.30
2017-07-21T04:20:05.605Z,7.07
2017-07-21T04:22:32.037Z,8.53
2017-07-21T04:24:58.436Z,7.63
2017-07-21T04:27:24.808Z,9.23
2017-07-21T04:29:51.313Z,9.50
2017-07-21T04:32:18.488Z,8.20
2017-07-21T04:34:44.871Z,7.00
2017-07-21T04:37:11.260Z,8.63
2017-07-21T04:39:37.655Z,9.40
2017-07-21T04:42:04.796Z,7.80
2017-07-21T04:44:31.204Z,8.30
2017-07-21T04:46:57.593Z,9.10
2017-07-21T04:49:23.980Z,8.07
2017-07-21T04:51:50.401Z,9.10
2017-07-21T04:54:16.851Z,8.00
2017-07-21T04:56:43.272Z,9.20
2017-07-21T04:59:09.660Z,8.73
2017-07-21T05:01:36.054Z,9.30
2017-07-21T05:04:02.455Z,8.70
2017-07-21T05:06:28.896Z,8.30
2017-07-21T05:08:55.317Z,10.07
2017-07-21T05:11:21.737Z,9.90
2017-07-21T05:13:48.146Z,9.03
2017-07-21T05:16:14.563Z,9.30
2017-07-21T05:18:40.978Z,8.30
2017-07-21T05:21:07.397Z,10.00
2017-07-21T05:23:33.793Z,8.80
2017-07-21T05:26:00.246Z,8.20
2017-07-21T05:28:27.288Z,8.37
2017-07-21T05:30:53.752Z,9.57
2017-07-21T05:33:20.181Z,9.70
2017-07-21T05:35:46.624Z,7.83
2017-07-21T05:38:13.025Z,9.23
2017-07-21T05:40:39.416Z,9.40
2017-07-21T05:43:06.552Z,9.43
2017-07-21T05:45:32.953Z,9.47
2017-07-21T05:47:59.357Z,7.73
2017-07-21T05:50:25.756Z,8.63
2017-07-21T05:52:52.903Z,7.67
2017-07-21T05:55:19.739Z,7.10
2017-07-21T05:57:46.956Z,8.33
2017-07-21T06:00:13.409Z,7.50
2017-07-21T06:02:39.916Z,6.77
2017-07-21T06:05:06.349Z,6.50
2017-07-21T06:07:33.909Z,7.67
2017-07-21T06:10:00.319Z,6.43
2017-07-21T06:12:27.569Z,6.17
2017-07-21T06:14:53.994Z,6.00
2017-07-21T06:17:20.399Z,6.10
2017-07-21T06:19:47.567Z,4.97
2017-07-21T06:22:14.719Z,4.70
2017-07-21T06:24:41.111Z,4.30
2017-07-21T06:27:07.522Z,4.50
2017-07-21T06:29:33.948Z,4.13
2017-07-21T06:32:00.943Z,3.80
2017-07-21T06:34:28.103Z,3.53
2017-07-21T06:36:55.271Z,3.83
2017-07-21T06:39:21.742Z,4.13
2017-07-21T06:41:48.251Z,4.10
2017-07-21T06:44:14.753Z,4.03
2017-07-21T06:46:41.193Z,3.63
2017-07-21T06:49:08.320Z,3.90
2017-07-21T06:51:34.876Z,4.30
2017-07-21T06:54:02.047Z,4.40
2017-07-21T06:56:28.448Z,4.20
2017-07-21T06:58:54.869Z,3.67
2017-07-21T07:01:21.566Z,4.17
2017-07-21T07:03:48.002Z,5.07
2017-07-21T07:06:14.400Z,5.07
2017-07-21T07:08:41.570Z,4.30
2017-07-21T07:11:08.053Z,4.23
2017-07-21T07:13:34.443Z,4.60
2017-07-21T07:16:01.187Z,4.60
2017-07-21T07:18:27.609Z,3.87
2017-07-21T07:20:54.330Z,5.27
2017-07-21T07:23:21.453Z,4.17
2017-07-21T07:25:47.940Z,4.60
2017-07-21T07:28:14.361Z,4.30
2017-07-21T07:30:40.777Z,4.33
2017-07-21T07:33:07.983Z,5.13
2017-07-21T07:35:35.444Z,5.53
2017-07-21T07:38:01.894Z,4.80
2017-07-21T07:40:28.318Z,5.63
2017-07-21T07:42:55.432Z,4.67
2017-07-21T07:45:22.418Z,4.93
2017-07-21T07:47:48.867Z,5.70
2017-07-21T07:50:15.276Z,5.67
2017-07-21T07:52:41.693Z,5.07
2017-07-21T07:55:08.108Z,5.07
2017-07-21T08:00:10.517Z,5.17
2017-07-21T08:02:36.925Z,4.27
2017-07-21T08:05:03.325Z,5.23
2017-07-21T08:07:29.728Z,4.27
2017-07-21T08:09:56.156Z,5.83
2017-07-21T08:12:22.622Z,4.57
2017-07-21T08:14:49.047Z,5.20
2017-07-21T08:17:15.551Z,4.30
2017-07-21T08:19:41.981Z,4.70
2017-07-21T08:22:08.397Z,4.90
2017-07-21T08:24:34.790Z,4.33
2017-07-21T08:27:01.219Z,4.20
2017-07-21T08:29:28.357Z,4.47
2017-07-21T08:31:54.765Z,4.20
2017-07-21T08:34:21.164Z,4.03
2017-07-21T08:36:47.589Z,4.67
2017-07-21T08:39:14.754Z,4.53
2017-07-21T08:41:41.169Z,4.43
2017-07-21T08:44:08.320Z,3.97
2017-07-21T08:46:35.468Z,4.73
2017-07-21T08:49:03.006Z,4.00
2017-07-21T08:51:29.404Z,4.00
2017-07-21T08:53:55.814Z,3.80
2017-07-21T08:56:22.225Z,3.93
2017-07-21T08:58:48.658Z,4.33
2017-07-21T09:01:15.802Z,4.60
2017-07-21T09:03:43.127Z,4.57
2017-07-21T09:06:09.545Z,4.40
2017-07-21T09:08:35.972Z,4.53
2017-07-21T09:11:02.388Z,3.90
2017-07-21T09:13:28.778Z,3.73
2017-07-21T09:15:55.174Z,3.27
2017-07-21T09:18:21.602Z,3.60
2017-07-21T09:20:48.009Z,4.57
2017-07-21T09:23:14.447Z,4.20
2017-07-21T09:25:40.918Z,4.00
2017-07-21T09:28:07.391Z,3.93
2017-07-21T09:30:34.566Z,3.53
2017-07-21T09:33:00.997Z,4.10
2017-07-21T09:35:27.393Z,3.13
2017-07-21T09:37:54.009Z,3.77
2017-07-21T09:40:20.396Z,3.47
2017-07-21T09:42:46.842Z,3.80
2017-07-21T09:45:22.185Z,4.07
2017-07-21T09:47:48.628Z,3.70
2017-07-21T09:50:15.066Z,3.73
2017-07-21T09:52:41.462Z,3.43
2017-07-21T09:55:08.645Z,3.80
2017-07-21T09:57:35.092Z,4.00
2017-07-21T10:00:01.529Z,4.07
2017-07-21T10:11:30.138Z,3.77
2017-07-21T10:13:56.526Z,4.00
2017-07-21T10:16:22.916Z,3.83
2017-07-21T10:18:49.692Z,3.70
2017-07-21T10:21:16.075Z,3.47
2017-07-21T10:23:42.490Z,3.50
2017-07-21T10:26:09.651Z,3.07
2017-07-21T10:28:36.058Z,3.57
2017-07-21T10:31:03.204Z,3.60
2017-07-21T10:33:29.594Z,4.10
2017-07-21T10:35:56.038Z,3.37
2017-07-21T10:38:22.500Z,3.33
2017-07-21T10:40:48.912Z,3.47
2017-07-21T10:43:15.310Z,3.70
2017-07-21T10:45:41.701Z,3.50
2017-07-21T10:48:08.144Z,3.20
2017-07-21T10:50:35.309Z,3.40
2017-07-21T10:53:01.773Z,3.40
2017-07-21T10:55:28.190Z,4.10
2017-07-21T10:57:54.580Z,3.33
2017-07-21T11:00:21.051Z,3.53
2017-07-21T11:02:47.475Z,3.47
2017-07-21T11:05:13.856Z,3.43
2017-07-21T11:07:40.248Z,3.80
2017-07-21T11:10:06.654Z,3.37
2017-07-21T11:12:33.829Z,3.43
2017-07-21T11:15:00.256Z,3.03
2017-07-21T11:17:26.622Z,3.27
2017-07-21T11:19:53.032Z,3.27
2017-07-21T11:22:19.446Z,3.10
2017-07-21T11:24:46.631Z,2.90
2017-07-21T11:27:13.051Z,3.10
2017-07-21T11:29:39.492Z,2.70
2017-07-21T11:32:05.968Z,3.20
2017-07-21T11:34:32.402Z,3.10
2017-07-21T11:36:58.863Z,2.93
2017-07-21T11:39:26.001Z,3.03
2017-07-21T11:41:52.448Z,3.53
2017-07-21T11:44:19.604Z,2.73
2017-07-21T11:46:45.999Z,2.70
2017-07-21T11:49:13.177Z,2.60
2017-07-21T11:51:40.329Z,2.93
2017-07-21T11:54:07.530Z,3.17
2017-07-21T11:56:33.913Z,3.00
2017-07-21T11:59:01.098Z,3.03
2017-07-21T12:01:27.564Z,2.73
2017-07-21T12:03:53.988Z,2.60
2017-07-21T12:06:20.419Z,3.00
2017-07-21T12:08:46.807Z,3.40
2017-07-21T12:11:13.210Z,3.00
2017-07-21T12:13:39.686Z,3.20
2017-07-21T12:16:06.119Z,2.60
2017-07-21T12:18:32.548Z,3.10
2017-07-21T12:20:59.685Z,3.30
2017-07-21T12:23:26.855Z,2.60
2017-07-21T12:25:53.282Z,2.60
2017-07-21T12:28:19.700Z,3.13
2017-07-21T12:30:46.100Z,2.87
2017-07-21T12:33:12.500Z,3.10
2017-07-21T12:35:38.895Z,3.50
2017-07-21T12:38:06.065Z,2.73
2017-07-21T12:40:32.472Z,2.83
2017-07-21T12:42:58.872Z,3.03
2017-07-21T12:45:25.307Z,2.93
2017-07-21T12:47:51.733Z,2.40
2017-07-21T12:50:18.198Z,2.90
2017-07-21T12:52:44.615Z,2.73
2017-07-21T12:55:11.064Z,2.50
2017-07-21T12:57:38.221Z,2.77
2017-07-21T13:00:05.609Z,2.57
2017-07-21T13:02:32.018Z,2.47
2017-07-21T13:04:59.181Z,2.97
2017-07-21T13:07:25.593Z,2.40
2017-07-21T13:09:52.772Z,2.33
2017-07-21T13:12:19.176Z,2.53
2017-07-21T13:14:46.358Z,2.70
2017-07-21T13:17:12.793Z,2.80
2017-07-21T13:19:39.193Z,2.37
2017-07-21T13:22:06.359Z,2.80
2017-07-21T13:24:32.804Z,3.07
2017-07-21T13:26:59.278Z,2.40
2017-07-21T13:29:25.722Z,2.50
2017-07-21T13:31:52.109Z,3.27
2017-07-21T13:34:18.520Z,2.60
2017-07-21T13:36:44.916Z,2.70
2017-07-21T13:39:11.345Z,2.63
2017-07-21T13:41:37.745Z,2.60
2017-07-21T13:44:04.189Z,2.37
2017-07-21T13:46:30.644Z,2.83
2017-07-21T13:48:57.833Z,2.33
2017-07-21T13:51:25.000Z,2.80
2017-07-21T13:53:51.395Z,2.53
2017-07-21T13:56:17.803Z,2.57
2017-07-21T13:58:44.189Z,3.10
2017-07-21T14:01:10.593Z,2.70
2017-07-21T14:03:37.010Z,2.50
2017-07-21T14:06:03.399Z,2.60
2017-07-21T14:08:29.837Z,2.57
2017-07-21T14:10:56.239Z,2.30
2017-07-21T14:13:22.622Z,2.97
2017-07-21T14:15:49.009Z,2.13
2017-07-21T14:18:16.144Z,3.00
2017-07-21T14:20:42.549Z,2.30
2017-07-21T14:23:08.945Z,2.40
2017-07-21T14:25:35.328Z,3.40
2017-07-21T14:28:01.749Z,2.77
2017-07-21T14:30:28.176Z,2.60
2017-07-21T14:32:54.614Z,2.20
2017-07-21T14:35:21.023Z,2.33
2017-07-21T14:37:47.449Z,2.57
2017-07-21T14:40:13.861Z,2.67
2017-07-21T14:42:41.045Z,3.00
2017-07-21T14:45:07.430Z,2.53
2017-07-21T14:47:33.854Z,2.53
2017-07-21T14:50:00.287Z,2.30
2017-07-21T14:52:26.703Z,2.57
2017-07-21T14:54:53.068Z,2.20
2017-07-21T14:57:20.201Z,2.47
2017-07-21T14:59:46.621Z,2.10
2017-07-21T15:02:13.027Z,2.70
2017-07-21T15:04:39.442Z,2.97
2017-07-21T15:07:05.822Z,3.03
2017-07-21T15:09:32.207Z,2.10
2017-07-21T15:11:58.592Z,2.37
2017-07-21T15:14:24.979Z,3.80
2017-07-21T15:16:51.394Z,2.50
2017-07-21T15:19:17.801Z,2.70
2017-07-21T15:21:44.195Z,2.40
2017-07-21T15:24:10.613Z,2.57
2017-07-21T15:26:37.033Z,2.40
2017-07-21T15:29:03.439Z,2.70
2017-07-21T15:31:30.587Z,2.50
2017-07-21T15:33:57.012Z,2.87
2017-07-21T15:36:23.405Z,2.40
2017-07-21T15:38:50.142Z,4.43
2017-07-21T15:41:16.910Z,4.80
2017-07-21T15:43:43.764Z,2.10
2017-07-21T15:46:10.160Z,2.43
2017-07-21T15:48:36.574Z,2.93
2017-07-21T15:51:02.997Z,2.20
2017-07-21T15:53:29.401Z,2.50
2017-07-21T15:55:55.813Z,2.30
2017-07-21T15:58:22.212Z,2.10
2017-07-21T16:00:48.634Z,2.27
2017-07-21T16:03:15.065Z,2.53
2017-07-21T16:05:41.462Z,5.27
2017-07-21T16:08:07.849Z,4.50
2017-07-21T16:10:34.266Z,3.33
2017-07-21T16:13:00.653Z,2.60
2017-07-21T16:15:27.029Z,2.40
2017-07-21T16:17:53.414Z,2.83
2017-07-21T16:20:19.844Z,3.40
2017-07-21T16:22:46.234Z,3.27
2017-07-21T16:25:13.600Z,2.53
2017-07-21T16:27:40.002Z,3.20
2017-07-21T16:30:06.446Z,2.97
2017-07-21T16:32:32.850Z,3.00
2017-07-21T16:34:59.226Z,2.67
2017-07-21T16:37:25.641Z,2.43
2017-07-21T16:39:52.770Z,2.57
2017-07-21T16:42:19.911Z,2.77
2017-07-21T16:44:46.317Z,2.60
2017-07-21T16:47:12.729Z,2.73
2017-07-21T16:49:39.138Z,2.53
2017-07-21T16:52:05.550Z,2.73
2017-07-21T16:54:31.933Z,2.80
2017-07-21T16:56:58.349Z,2.00
2017-07-21T16:59:24.742Z,2.50
2017-07-21T17:01:51.147Z,2.97
2017-07-21T17:04:17.539Z,2.77
2017-07-21T17:06:43.944Z,2.70
2017-07-21T17:09:10.357Z,3.10
2017-07-21T17:11:36.740Z,2.30
2017-07-21T17:14:03.129Z,2.90
2017-07-21T17:16:29.563Z,8.70
2017-07-21T17:18:55.969Z,3.80
2017-07-21T17:21:22.370Z,4.13
2017-07-21T17:23:48.775Z,6.87
2017-07-21T17:26:15.934Z,3.73
2017-07-21T17:28:43.105Z,4.10
2017-07-21T17:31:09.517Z,12.00
2017-07-21T17:33:35.941Z,7.33
2017-07-21T17:36:03.123Z,7.50
2017-07-21T17:38:29.553Z,6.80
2017-07-21T17:40:55.962Z,8.03
2017-07-21T17:43:23.139Z,8.20
2017-07-21T17:45:49.575Z,4.10
2017-07-21T17:48:30.942Z,4.83
2017-07-21T17:50:57.379Z,13.47
2017-07-21T17:53:23.809Z,12.93
2017-07-21T17:55:50.253Z,18.70
2017-07-21T17:58:16.671Z,30.57
2017-07-21T18:00:43.044Z,10.53
2017-07-21T18:03:09.451Z,6.30
2017-07-21T18:05:35.921Z,4.50
2017-07-21T18:08:02.358Z,7.00
2017-07-21T18:10:29.264Z,7.40
2017-07-21T18:12:55.676Z,6.80
2017-07-21T18:15:22.950Z,4.23
2017-07-21T18:17:49.390Z,8.33
2017-07-21T18:20:15.812Z,4.13
2017-07-21T18:22:42.208Z,3.83
2017-07-21T18:25:08.634Z,4.97
2017-07-21T18:27:35.070Z,4.40
2017-07-21T18:30:08.447Z,4.67
2017-07-21T18:32:34.887Z,3.40
2017-07-21T18:35:01.321Z,4.27
2017-07-21T18:37:27.767Z,3.80
2017-07-21T18:39:54.190Z,4.27
2017-07-21T18:42:20.596Z,4.07
2017-07-21T18:44:47.047Z,4.10
2017-07-21T18:47:13.491Z,3.43
2017-07-21T18:49:39.930Z,3.60
2017-07-21T18:52:06.352Z,3.30
2017-07-21T18:54:32.782Z,3.23
2017-07-21T18:56:59.383Z,3.57
2017-07-21T18:59:25.816Z,3.80
2017-07-21T19:01:52.258Z,3.30
2017-07-21T19:04:18.680Z,3.47
2017-07-21T19:06:45.111Z,2.80
2017-07-21T19:09:17.303Z,3.20
2017-07-21T19:11:43.711Z,2.70
2017-07-21T19:14:10.112Z,3.40
2017-07-21T19:16:36.541Z,3.60
2017-07-21T19:19:02.988Z,3.40
2017-07-21T19:21:30.137Z,3.23
2017-07-21T19:23:57.318Z,4.70
2017-07-21T19:26:23.752Z,18.37
2017-07-21T19:28:50.181Z,8.30
2017-07-21T19:31:23.470Z,13.40
2017-07-21T19:33:49.946Z,21.47
2017-07-21T19:36:16.381Z,13.60
2017-07-21T19:38:43.064Z,28.77
2017-07-21T19:41:10.250Z,22.73
2017-07-21T19:43:36.711Z,25.87
2017-07-21T19:46:03.976Z,10.13
2017-07-21T19:48:30.478Z,11.10
2017-07-21T19:50:56.956Z,14.40
2017-07-21T19:53:23.456Z,12.13
2017-07-21T19:55:49.888Z,9.23
2017-07-21T19:58:16.308Z,10.87
2017-07-21T20:00:42.777Z,10.07
2017-07-21T20:03:09.270Z,22.80
2017-07-21T20:05:35.785Z,14.73
2017-07-21T20:08:02.231Z,7.30
2017-07-21T20:10:28.689Z,5.83
2017-07-21T20:12:55.200Z,7.20
2017-07-21T20:15:21.651Z,6.90
2017-07-21T20:17:48.135Z,7.30
2017-07-21T20:20:15.322Z,13.20
2017-07-21T20:22:42.374Z,11.10
2017-07-21T20:25:08.793Z,13.37
2017-07-21T20:27:35.302Z,12.90
2017-07-21T20:30:02.557Z,12.27
2017-07-21T20:32:29.746Z,20.33
2017-07-21T20:34:56.192Z,16.90
2017-07-21T20:37:22.605Z,22.20
2017-07-21T20:39:49.012Z,10.30
2017-07-21T20:42:16.206Z,9.60
2017-07-21T20:44:42.669Z,7.93
2017-07-21T20:47:09.120Z,7.30
2017-07-21T20:49:35.557Z,6.07
2017-07-21T20:52:02.697Z,10.63
2017-07-21T20:54:29.153Z,8.63
2017-07-21T20:56:55.577Z,20.63
2017-07-21T20:59:22.030Z,11.17
2017-07-21T21:01:48.535Z,6.17
2017-07-21T21:04:15.686Z,5.70
2017-07-21T21:06:42.103Z,6.00
2017-07-21T21:09:08.529Z,5.77
2017-07-21T21:11:34.981Z,8.40
2017-07-21T21:14:01.421Z,5.97
2017-07-21T21:16:28.573Z,5.90
2017-07-21T21:18:54.974Z,5.57
2017-07-21T21:21:21.389Z,6.50
2017-07-21T21:23:47.802Z,6.47
2017-07-21T21:26:14.265Z,6.30
2017-07-21T21:28:40.720Z,6.10
2017-07-21T21:31:07.120Z,6.83
2017-07-21T21:33:33.545Z,8.80
2017-07-21T21:35:59.993Z,7.90
2017-07-21T21:38:26.401Z,6.13
2017-07-21T21:40:53.208Z,6.57
2017-07-21T21:43:19.607Z,6.20
2017-07-21T21:45:46.016Z,6.90
2017-07-21T21:48:12.403Z,6.07
2017-07-21T21:50:38.795Z,6.77
2017-07-21T21:53:05.203Z,6.73
2017-07-21T21:55:31.584Z,5.97
2017-07-21T21:57:57.969Z,6.20
2017-07-21T22:00:24.405Z,7.20
2017-07-21T22:02:50.844Z,5.77
2017-07-21T22:05:17.267Z,5.77
2017-07-21T22:07:43.672Z,6.20
2017-07-21T22:10:10.071Z,6.00
2017-07-21T22:12:36.453Z,6.30
2017-07-21T22:15:02.921Z,5.77
2017-07-21T22:17:29.370Z,7.50
2017-07-21T22:19:55.767Z,6.10
2017-07-21T22:22:22.145Z,6.13
2017-07-21T22:24:48.538Z,6.07
2017-07-21T22:27:14.947Z,7.10
2017-07-21T22:29:42.071Z,7.07
2017-07-21T22:32:08.484Z,6.60
2017-07-21T22:34:34.889Z,6.60
2017-07-21T22:37:01.303Z,6.80
2017-07-21T22:39:28.496Z,6.23
2017-07-21T22:41:54.898Z,8.73
2017-07-21T22:44:21.300Z,8.50
2017-07-21T22:46:48.471Z,7.17
2017-07-21T22:49:14.876Z,7.30
2017-07-21T22:51:41.261Z,7.80
2017-07-21T22:54:07.669Z,7.40
2017-07-21T22:56:34.469Z,7.20
2017-07-21T22:59:00.902Z,7.20
2017-07-21T23:01:27.323Z,7.50
2017-07-21T23:03:53.929Z,7.40
2017-07-21T23:06:20.332Z,6.87
2017-07-21T23:08:47.465Z,7.47
2017-07-21T23:11:13.867Z,6.77
2017-07-21T23:13:40.295Z,7.40
2017-07-21T23:16:06.706Z,8.17
2017-07-21T23:18:33.089Z,7.80
2017-07-21T23:20:59.501Z,7.97
2017-07-21T23:23:25.886Z,6.30
2017-07-21T23:31:04.273Z,8.10
2017-07-21T23:33:30.681Z,8.23
2017-07-21T23:35:57.106Z,7.60
2017-07-21T23:38:23.515Z,9.30
2017-07-21T23:40:50.725Z,8.43
2017-07-21T23:43:17.129Z,8.27
2017-07-21T23:45:43.559Z,6.93
2017-07-21T23:48:10.004Z,9.50
2017-07-21T23:50:36.425Z,9.03
2017-07-21T23:53:03.225Z,9.33
2017-07-21T23:55:29.634Z,9.20
2017-07-21T23:57:56.031Z,9.77
